Time;durP1;ratioP1;P1;durP2;ratioP2;P2;SDS_P1;SDS_P2;PMS_P1;PMS_P2;Temp;Humidity;BMP_temperature;BMP_pressure;BME280_temperature;BME280_humidity;BME280_pressure;Samples;Min_cycle;Max_cycle;Signal;HPM_P1;HPM_P2
2023/04/12 00:02:26;;;;;;;13.95;11.35;;;;;;;;;;6275980;22;20019;-66
2023/04/12 00:04:56;;;;;;;16.30;10.93;;;;;;;;;;6249211;22;20027;-67
2023/04/12 00:07:24;;;;;;;17.05;11.45;;;;;;;;;;6275963;22;20020;-69
2023/04/12 00:09:51;;;;;;;15.18;11.23;;;;;;;;;;6276119;22;20011;-66
2023/04/12 00:12:19;;;;;;;15.13;11.55;;;;;;;;;;6277254;22;20083;-67
2023/04/12 00:14:47;;;;;;;15.65;11.20;;;;;;;;;;6277819;22;20445;-67
2023/04/12 00:17:14;;;;;;;17.90;12.70;;;;;;;;;;6277974;22;20095;-67
2023/04/12 00:19:43;;;;;;;20.13;13.40;;;;;;;;;;6277900;22;20023;-67
2023/04/12 00:22:11;;;;;;;15.50;11.82;;;;;;;;;;6277819;22;20617;-67
2023/04/12 00:24:39;;;;;;;15.75;11.15;;;;;;;;;;6277909;22;20023;-67
2023/04/12 00:27:07;;;;;;;15.15;10.70;;;;;;;;;;6277837;22;20040;-67
2023/04/12 00:29:35;;;;;;;16.02;10.45;;;;;;;;;;6277792;22;20022;-67
2023/04/12 00:32:04;;;;;;;13.63;9.82;;;;;;;;;;6250656;22;20016;-67
2023/04/12 00:34:32;;;;;;;14.63;9.10;;;;;;;;;;6250941;22;20026;-67
2023/04/12 00:37:00;;;;;;;12.77;9.02;;;;;;;;;;6250563;22;20384;-67
2023/04/12 00:39:27;;;;;;;13.15;10.00;;;;;;;;;;6277517;22;20491;-66
2023/04/12 00:41:56;;;;;;;15.88;8.93;;;;;;;;;;6277531;22;20015;-67
2023/04/12 00:44:24;;;;;;;12.00;9.13;;;;;;;;;;6250475;22;20016;-67
2023/04/12 00:46:53;;;;;;;11.88;9.32;;;;;;;;;;6277818;22;20341;-67
2023/04/12 00:49:21;;;;;;;13.75;9.98;;;;;;;;;;6250494;22;20041;-68
2023/04/12 00:51:48;;;;;;;14.20;10.00;;;;;;;;;;6250401;22;20352;-66
2023/04/12 00:54:16;;;;;;;13.05;9.98;;;;;;;;;;6250251;22;20024;-66
2023/04/12 00:56:46;;;;;;;15.60;9.82;;;;;;;;;;6250353;22;20046;-67
2023/04/12 00:59:14;;;;;;;13.38;10.00;;;;;;;;;;6250229;22;20387;-67
2023/04/12 01:01:41;;;;;;;14.45;10.30;;;;;;;;;;6277464;22;20024;-67
2023/04/12 01:04:12;;;;;;;12.82;9.43;;;;;;;;;;6250101;22;20042;-67
2023/04/12 01:07:02;;;;;;;16.85;10.20;;;;;;;;;;6249898;22;20102;-67
2023/04/12 01:09:35;;;;;;;15.93;9.98;;;;;;;;;;6250208;22;20094;-67
2023/04/12 01:12:08;;;;;;;13.48;10.15;;;;;;;;;;6250530;22;20345;-67
2023/04/12 01:14:43;;;;;;;16.33;11.20;;;;;;;;;;6249833;22;20031;-67
2023/04/12 01:17:16;;;;;;;15.35;10.88;;;;;;;;;;6225036;22;20043;-67
2023/04/12 01:19:56;;;;;;;14.38;11.00;;;;;;;;;;6250339;22;20032;-68
2023/04/12 01:22:24;;;;;;;16.08;10.70;;;;;;;;;;6249618;22;20077;-67
2023/04/12 01:25:03;;;;;;;15.90;10.65;;;;;;;;;;6249950;22;20024;-67
2023/04/12 01:27:47;;;;;;;15.57;10.68;;;;;;;;;;6250094;22;20020;-67
2023/04/12 01:30:16;;;;;;;15.50;10.90;;;;;;;;;;6277124;22;20346;-67
2023/04/12 01:32:46;;;;;;;15.40;11.40;;;;;;;;;;6277114;22;20012;-68
2023/04/12 01:35:15;;;;;;;16.88;10.98;;;;;;;;;;6224989;22;20354;-68
2023/04/12 01:37:43;;;;;;;16.67;11.38;;;;;;;;;;6250120;22;20019;-68
2023/04/12 01:40:12;;;;;;;16.83;11.38;;;;;;;;;;6250391;22;20023;-68
2023/04/12 01:42:39;;;;;;;15.45;10.77;;;;;;;;;;6250073;22;20026;-66
2023/04/12 01:45:07;;;;;;;16.80;11.75;;;;;;;;;;6224952;22;20103;-67
2023/04/12 01:47:35;;;;;;;15.77;11.15;;;;;;;;;;6249961;22;20327;-67
2023/04/12 01:50:16;;;;;;;14.75;11.07;;;;;;;;;;6224930;22;20023;-67
2023/04/12 01:52:48;;;;;;;16.85;11.48;;;;;;;;;;6249824;22;20020;-67
2023/04/12 01:55:16;;;;;;;16.10;11.23;;;;;;;;;;6249969;22;20042;-67
2023/04/12 01:57:44;;;;;;;16.60;11.07;;;;;;;;;;6249869;22;20026;-67
2023/04/12 02:00:12;;;;;;;15.90;11.77;;;;;;;;;;6249769;22;20023;-67
2023/04/12 02:02:40;;;;;;;17.17;11.15;;;;;;;;;;6276797;22;20015;-67
2023/04/12 02:05:09;;;;;;;13.85;10.70;;;;;;;;;;6249907;22;20381;-67
2023/04/12 02:07:36;;;;;;;15.20;10.55;;;;;;;;;;6249690;22;20024;-67
2023/04/12 02:10:04;;;;;;;16.40;10.93;;;;;;;;;;6250014;22;20442;-67
2023/04/12 02:12:31;;;;;;;16.40;10.13;;;;;;;;;;6249625;22;20019;-67
2023/04/12 02:14:59;;;;;;;15.13;10.95;;;;;;;;;;6249643;22;20082;-68
2023/04/12 02:17:29;;;;;;;15.43;10.85;;;;;;;;;;6249702;22;20380;-67
2023/04/12 02:19:56;;;;;;;16.27;11.18;;;;;;;;;;6249573;22;20032;-67
2023/04/12 02:22:24;;;;;;;14.60;11.35;;;;;;;;;;6249547;22;20020;-67
2023/04/12 02:24:53;;;;;;;17.17;10.85;;;;;;;;;;6276610;22;20062;-67
2023/04/12 02:27:21;;;;;;;15.30;11.02;;;;;;;;;;6249461;22;20514;-67
2023/04/12 02:29:48;;;;;;;15.63;10.98;;;;;;;;;;6249453;22;20019;-67
2023/04/12 02:32:16;;;;;;;15.68;11.52;;;;;;;;;;6224742;22;20369;-67
2023/04/12 02:34:50;;;;;;;15.52;11.15;;;;;;;;;;6249334;22;20027;-67
2023/04/12 02:37:23;;;;;;;17.42;12.68;;;;;;;;;;6224568;22;20070;-67
2023/04/12 02:39:50;;;;;;;16.98;11.40;;;;;;;;;;6250070;22;20073;-67
2023/04/12 02:42:19;;;;;;;17.02;11.35;;;;;;;;;;6249286;22;20015;-67
2023/04/12 02:44:48;;;;;;;15.70;11.48;;;;;;;;;;6249279;22;20019;-67
2023/04/12 02:47:15;;;;;;;16.55;10.88;;;;;;;;;;6249349;22;20024;-67
2023/04/12 02:49:46;;;;;;;17.70;12.30;;;;;;;;;;6249288;22;20042;-66
2023/04/12 02:52:16;;;;;;;16.60;11.93;;;;;;;;;;6249694;22;20025;-66
2023/04/12 02:54:58;;;;;;;17.05;11.98;;;;;;;;;;6249100;22;20020;-67
2023/04/12 02:57:26;;;;;;;16.67;11.90;;;;;;;;;;6249377;22;20093;-67
2023/04/12 02:59:54;;;;;;;17.33;11.52;;;;;;;;;;6249102;22;20019;-66
2023/04/12 03:02:24;;;;;;;17.00;11.88;;;;;;;;;;6249265;22;20094;-66
2023/04/12 03:04:57;;;;;;;18.33;12.68;;;;;;;;;;6248979;22;20043;-66
2023/04/12 03:07:34;;;;;;;16.92;12.25;;;;;;;;;;6249136;22;20027;-66
2023/04/12 03:10:05;;;;;;;18.17;12.00;;;;;;;;;;6249389;22;20015;-66
2023/04/12 03:12:38;;;;;;;14.98;11.63;;;;;;;;;;6225128;22;20095;-67
2023/04/12 03:15:14;;;;;;;17.73;11.55;;;;;;;;;;6225897;22;20328;-67
2023/04/12 03:17:45;;;;;;;16.88;12.07;;;;;;;;;;6249139;22;20102;-67
2023/04/12 03:20:16;;;;;;;16.27;11.25;;;;;;;;;;6244383;23;20028;-66
2023/04/12 03:22:50;;;;;;;16.38;11.63;;;;;;;;;;6218561;23;20457;-66
2023/04/12 03:25:18;;;;;;;18.10;12.10;;;;;;;;;;6243935;23;20024;-66
2023/04/12 03:27:52;;;;;;;18.92;12.32;;;;;;;;;;6218668;23;20086;-66
2023/04/12 03:30:26;;;;;;;17.83;12.18;;;;;;;;;;6243778;23;20024;-66
2023/04/12 03:32:55;;;;;;;14.65;10.68;;;;;;;;;;6218885;23;20023;-66
2023/04/12 03:35:25;;;;;;;17.10;11.63;;;;;;;;;;6243936;23;20039;-66
2023/04/12 03:37:53;;;;;;;17.77;11.73;;;;;;;;;;6218717;23;20099;-66
2023/04/12 03:40:20;;;;;;;17.42;11.43;;;;;;;;;;6218599;23;20438;-66
2023/04/12 03:42:56;;;;;;;18.98;13.27;;;;;;;;;;6218411;23;20051;-67
2023/04/12 03:45:26;;;;;;;15.23;11.63;;;;;;;;;;6218126;23;20550;-68
2023/04/12 03:47:57;;;;;;;16.95;11.70;;;;;;;;;;6243674;23;20020;-68
2023/04/12 03:50:28;;;;;;;17.80;11.73;;;;;;;;;;6218460;23;20020;-66
2023/04/12 03:52:57;;;;;;;14.75;10.75;;;;;;;;;;6245317;23;20062;-66
2023/04/12 03:55:30;;;;;;;15.15;10.23;;;;;;;;;;6243591;23;20020;-66
2023/04/12 03:57:59;;;;;;;16.85;9.98;;;;;;;;;;6243975;23;20028;-66
2023/04/12 04:00:32;;;;;;;14.88;10.35;;;;;;;;;;6243527;23;20047;-66
2023/04/12 04:03:06;;;;;;;13.38;9.38;;;;;;;;;;6243831;23;20020;-67
2023/04/12 04:05:49;;;;;;;14.60;8.82;;;;;;;;;;6218203;23;20020;-66
2023/04/12 04:08:19;;;;;;;12.75;8.85;;;;;;;;;;6218337;23;20037;-67
2023/04/12 04:10:53;;;;;;;11.55;8.50;;;;;;;;;;6245234;23;20030;-67
2023/04/12 04:13:26;;;;;;;13.38;8.57;;;;;;;;;;6218499;23;20017;-68
2023/04/12 04:16:00;;;;;;;12.25;8.57;;;;;;;;;;6218137;23;20016;-67
2023/04/12 04:18:28;;;;;;;14.38;8.82;;;;;;;;;;6226207;22;20031;-66
2023/04/12 04:20:57;;;;;;;14.93;9.55;;;;;;;;;;6248657;22;20030;-67
2023/04/12 04:23:27;;;;;;;16.67;10.45;;;;;;;;;;6248734;22;20131;-67
2023/04/12 04:25:57;;;;;;;14.75;10.35;;;;;;;;;;6248813;22;20066;-66
2023/04/12 04:28:26;;;;;;;14.27;9.90;;;;;;;;;;6248709;22;20319;-66
2023/04/12 04:30:55;;;;;;;20.00;11.63;;;;;;;;;;6248598;22;20050;-67
2023/04/12 04:33:23;;;;;;;16.83;10.45;;;;;;;;;;6248315;22;20015;-67
2023/04/12 04:36:00;;;;;;;17.48;11.48;;;;;;;;;;6248601;22;20024;-67
2023/04/12 04:38:31;;;;;;;23.77;11.13;;;;;;;;;;6248584;22;20016;-67
2023/04/12 04:41:21;;;;;;;17.50;10.68;;;;;;;;;;6248202;22;20522;-67
2023/04/12 04:43:56;;;;;;;13.10;9.40;;;;;;;;;;6246982;22;20087;-66
2023/04/12 04:46:29;;;;;;;13.07;8.45;;;;;;;;;;6247383;22;20019;-67
2023/04/12 04:48:57;;;;;;;12.95;9.20;;;;;;;;;;6274826;22;20027;-67
2023/04/12 04:51:25;;;;;;;14.27;8.60;;;;;;;;;;6247772;22;20012;-67
2023/04/12 04:53:54;;;;;;;14.15;9.23;;;;;;;;;;6248284;22;20024;-67
2023/04/12 04:56:23;;;;;;;11.85;8.27;;;;;;;;;;6275676;22;20062;-67
2023/04/12 04:58:52;;;;;;;18.23;9.50;;;;;;;;;;6250192;22;20022;-67
2023/04/12 05:01:26;;;;;;;16.20;9.85;;;;;;;;;;6250305;22;20028;-67
2023/04/12 05:03:57;;;;;;;17.48;9.60;;;;;;;;;;6250274;22;20534;-67
2023/04/12 05:06:27;;;;;;;16.02;9.60;;;;;;;;;;6250283;22;20020;-67
2023/04/12 05:08:56;;;;;;;13.10;8.90;;;;;;;;;;6250382;22;20093;-67
2023/04/12 05:11:24;;;;;;;16.92;9.43;;;;;;;;;;6225465;22;20024;-68
2023/04/12 05:13:53;;;;;;;13.00;8.60;;;;;;;;;;6249932;22;20054;-67
2023/04/12 05:16:20;;;;;;;19.00;9.73;;;;;;;;;;6250611;22;20019;-67
2023/04/12 05:18:48;;;;;;;14.75;9.75;;;;;;;;;;6277171;22;20018;-67
2023/04/12 05:21:15;;;;;;;13.60;8.73;;;;;;;;;;6225321;22;20044;-67
2023/04/12 05:23:45;;;;;;;17.52;9.05;;;;;;;;;;6250769;22;20023;-67
2023/04/12 05:26:13;;;;;;;11.63;8.52;;;;;;;;;;6250293;22;20022;-67
2023/04/12 05:28:45;;;;;;;13.57;9.13;;;;;;;;;;6250216;22;20020;-67
2023/04/12 05:31:13;;;;;;;14.55;8.45;;;;;;;;;;6250151;22;20020;-67
2023/04/12 05:33:41;;;;;;;11.98;8.27;;;;;;;;;;6250257;22;20449;-67
2023/04/12 05:36:09;;;;;;;16.08;9.35;;;;;;;;;;6249973;22;20023;-67
2023/04/12 05:38:36;;;;;;;12.82;8.23;;;;;;;;;;6250162;22;20312;-67
2023/04/12 05:41:10;;;;;;;14.93;9.07;;;;;;;;;;6250187;22;20024;-67
2023/04/12 05:43:38;;;;;;;11.05;7.78;;;;;;;;;;6250114;22;20024;-67
2023/04/12 05:46:07;;;;;;;10.95;7.90;;;;;;;;;;6250301;22;20027;-67
2023/04/12 05:48:36;;;;;;;12.48;8.45;;;;;;;;;;6249925;22;20015;-67
2023/04/12 05:51:04;;;;;;;10.75;7.63;;;;;;;;;;6250064;22;20354;-67
2023/04/12 05:53:32;;;;;;;12.88;8.02;;;;;;;;;;6250262;22;20345;-67
2023/04/12 05:56:02;;;;;;;11.88;8.52;;;;;;;;;;6250353;22;20052;-67
2023/04/12 05:58:30;;;;;;;13.70;7.88;;;;;;;;;;6277144;22;20035;-67
2023/04/12 06:00:58;;;;;;;11.25;7.78;;;;;;;;;;6249811;22;20446;-67
2023/04/12 06:03:28;;;;;;;16.92;8.00;;;;;;;;;;6250031;22;20072;-67
2023/04/12 06:06:01;;;;;;;;;;;;;;;;;;6250760;22;20065;-67
2023/04/12 06:08:29;;;;;;;10.63;7.65;;;;;;;;;;6249510;22;20273;-67
2023/04/12 06:10:57;;;;;;;15.10;8.68;;;;;;;;;;6249567;22;20049;-67
2023/04/12 06:13:26;;;;;;;12.77;7.28;;;;;;;;;;6249663;22;20019;-67
2023/04/12 06:15:54;;;;;;;14.13;7.32;;;;;;;;;;6249789;22;20069;-67
2023/04/12 06:18:23;;;;;;;9.80;7.07;;;;;;;;;;6249393;22;20103;-67
2023/04/12 06:20:50;;;;;;;11.60;7.22;;;;;;;;;;6250013;22;20030;-67
2023/04/12 06:23:18;;;;;;;13.65;6.97;;;;;;;;;;6276745;22;20016;-68
2023/04/12 06:25:47;;;;;;;12.85;7.32;;;;;;;;;;6249511;22;20022;-67
2023/04/12 06:28:15;;;;;;;11.57;7.53;;;;;;;;;;6249480;22;20019;-67
2023/04/12 06:30:46;;;;;;;9.40;6.82;;;;;;;;;;6249575;22;20019;-67
2023/04/12 06:33:14;;;;;;;11.80;7.15;;;;;;;;;;6276592;22;20099;-67
2023/04/12 06:35:42;;;;;;;9.20;6.57;;;;;;;;;;6249313;22;20085;-67
2023/04/12 06:38:11;;;;;;;8.93;6.55;;;;;;;;;;6249425;22;20023;-67
2023/04/12 06:40:39;;;;;;;10.05;6.40;;;;;;;;;;6276733;22;20023;-67
2023/04/12 06:43:06;;;;;;;9.88;6.35;;;;;;;;;;6276490;22;20019;-67
2023/04/12 06:45:34;;;;;;;10.00;6.70;;;;;;;;;;6249324;22;20028;-67
2023/04/12 06:48:01;;;;;;;9.60;6.15;;;;;;;;;;6276405;22;20457;-67
2023/04/12 06:50:29;;;;;;;8.10;5.75;;;;;;;;;;6276632;22;20051;-67
2023/04/12 06:52:56;;;;;;;7.45;6.00;;;;;;;;;;6249688;22;20019;-67
2023/04/12 06:55:25;;;;;;;10.10;5.32;;;;;;;;;;6276395;22;20323;-67
2023/04/12 06:57:53;;;;;;;8.90;5.78;;;;;;;;;;6249611;22;20456;-67
2023/04/12 07:00:21;;;;;;;10.40;6.35;;;;;;;;;;6276421;22;20069;-67
2023/04/12 07:02:48;;;;;;;8.95;5.97;;;;;;;;;;6276923;22;20042;-67
2023/04/12 07:05:16;;;;;;;9.27;6.25;;;;;;;;;;6277557;22;20019;-67
2023/04/12 07:07:44;;;;;;;10.63;6.55;;;;;;;;;;6251268;22;20319;-67
2023/04/12 07:10:11;;;;;;;8.32;6.25;;;;;;;;;;6277796;22;20016;-68
2023/04/12 07:12:39;;;;;;;9.45;6.03;;;;;;;;;;6277483;22;20405;-67
2023/04/12 07:15:07;;;;;;;7.63;5.43;;;;;;;;;;6275977;22;20016;-67
2023/04/12 07:17:35;;;;;;;9.57;6.20;;;;;;;;;;6276323;22;20091;-67
2023/04/12 07:20:03;;;;;;;8.70;6.10;;;;;;;;;;6275820;22;20026;-67
2023/04/12 07:22:30;;;;;;;11.00;6.10;;;;;;;;;;6276155;22;20011;-67
2023/04/12 07:24:57;;;;;;;11.05;6.60;;;;;;;;;;6276151;22;20019;-68
2023/04/12 07:27:25;;;;;;;10.02;6.30;;;;;;;;;;6276075;22;20011;-68
2023/04/12 07:29:53;;;;;;;11.27;6.95;;;;;;;;;;6276483;22;20027;-68
2023/04/12 07:32:20;;;;;;;12.15;6.55;;;;;;;;;;6276149;22;20012;-68
2023/04/12 07:34:48;;;;;;;11.05;6.57;;;;;;;;;;6275894;22;20019;-68
2023/04/12 07:37:16;;;;;;;8.27;5.38;;;;;;;;;;6275996;22;20020;-68
2023/04/12 07:39:44;;;;;;;8.15;5.72;;;;;;;;;;6275863;22;20016;-67
2023/04/12 07:42:11;;;;;;;8.90;6.03;;;;;;;;;;6276228;22;20438;-68
2023/04/12 07:44:39;;;;;;;9.05;5.82;;;;;;;;;;6275926;22;20501;-68
2023/04/12 07:47:06;;;;;;;9.85;6.60;;;;;;;;;;6275866;22;20461;-68
2023/04/12 07:49:34;;;;;;;12.18;6.53;;;;;;;;;;6275830;22;20023;-68
2023/04/12 07:52:01;;;;;;;9.65;6.57;;;;;;;;;;6275898;22;20016;-68
2023/04/12 07:54:29;;;;;;;10.10;6.47;;;;;;;;;;6276282;22;20015;-68
2023/04/12 07:57:01;;;;;;;8.60;6.10;;;;;;;;;;6275909;22;20015;-68
2023/04/12 07:59:29;;;;;;;9.07;6.43;;;;;;;;;;6276013;22;20023;-69
2023/04/12 08:01:57;;;;;;;10.45;7.15;;;;;;;;;;6275982;22;20354;-68
2023/04/12 08:04:27;;;;;;;9.18;6.28;;;;;;;;;;6275884;22;20026;-67
2023/04/12 08:06:55;;;;;;;8.90;6.57;;;;;;;;;;6275820;22;20016;-68
2023/04/12 08:09:23;;;;;;;10.18;6.60;;;;;;;;;;6248929;22;20446;-69
2023/04/12 08:11:51;;;;;;;10.70;6.47;;;;;;;;;;6249140;22;20087;-68
2023/04/12 08:14:18;;;;;;;8.48;6.68;;;;;;;;;;6275670;22;20091;-68
2023/04/12 08:16:46;;;;;;;8.75;7.03;;;;;;;;;;6275908;22;20054;-68
2023/04/12 08:19:13;;;;;;;9.23;7.38;;;;;;;;;;6275658;22;20031;-68
2023/04/12 08:21:41;;;;;;;11.63;7.68;;;;;;;;;;6275709;22;20094;-68
2023/04/12 08:24:08;;;;;;;15.98;7.72;;;;;;;;;;6276511;22;20020;-67
2023/04/12 08:26:36;;;;;;;10.90;7.40;;;;;;;;;;6275840;22;20409;-67
2023/04/12 08:29:04;;;;;;;10.18;6.47;;;;;;;;;;6275688;22;20020;-67
2023/04/12 08:31:32;;;;;;;9.13;6.93;;;;;;;;;;6275772;22;20536;-68
2023/04/12 08:34:00;;;;;;;11.23;7.15;;;;;;;;;;6277682;22;20027;-67
2023/04/12 08:36:27;;;;;;;15.50;7.85;;;;;;;;;;6277675;22;20016;-68
2023/04/12 08:39:01;;;;;;;12.02;7.90;;;;;;;;;;6277728;22;20075;-68
2023/04/12 08:41:29;;;;;;;14.55;8.55;;;;;;;;;;6277857;22;20091;-68
2023/04/12 08:43:57;;;;;;;13.55;8.85;;;;;;;;;;6277654;22;20011;-68
2023/04/12 08:46:26;;;;;;;15.07;8.48;;;;;;;;;;6278100;22;20022;-68
2023/04/12 08:48:56;;;;;;;10.73;6.82;;;;;;;;;;6277709;22;20016;-68
2023/04/12 08:51:23;;;;;;;9.07;6.18;;;;;;;;;;6250523;22;20031;-68
2023/04/12 08:53:52;;;;;;;8.30;5.50;;;;;;;;;;6277614;22;20016;-68
2023/04/12 08:56:22;;;;;;;8.07;6.18;;;;;;;;;;6250860;22;20023;-68
2023/04/12 08:58:50;;;;;;;7.18;5.00;;;;;;;;;;6277614;22;20016;-68
2023/04/12 09:01:19;;;;;;;7.05;4.05;;;;;;;;;;6251084;22;20016;-69
2023/04/12 09:03:47;;;;;;;6.47;4.05;;;;;;;;;;6277463;22;20438;-67
2023/04/12 09:06:15;;;;;;;4.65;3.80;;;;;;;;;;6250208;22;20449;-69
2023/04/12 09:08:55;;;;;;;8.82;5.30;;;;;;;;;;6277331;22;20020;-68
2023/04/12 09:11:23;;;;;;;6.47;5.28;;;;;;;;;;6277446;22;20012;-69
2023/04/12 09:13:51;;;;;;;10.35;5.28;;;;;;;;;;6250793;22;20015;-68
2023/04/12 09:16:33;;;;;;;10.60;5.38;;;;;;;;;;6277674;22;20019;-68
2023/04/12 09:19:02;;;;;;;9.15;5.70;;;;;;;;;;6277186;22;20022;-68
2023/04/12 09:21:30;;;;;;;8.82;5.78;;;;;;;;;;6277448;22;20569;-68
2023/04/12 09:24:04;;;;;;;8.65;5.00;;;;;;;;;;6277156;22;20081;-68
2023/04/12 09:26:32;;;;;;;5.53;4.90;;;;;;;;;;6277300;22;20015;-67
2023/04/12 09:28:59;;;;;;;9.85;5.00;;;;;;;;;;6250195;22;20111;-68
2023/04/12 09:31:27;;;;;;;9.20;5.85;;;;;;;;;;6277220;22;20011;-68
2023/04/12 09:34:06;;;;;;;10.13;5.57;;;;;;;;;;6277078;22;20099;-67
2023/04/12 09:36:39;;;;;;;7.90;5.10;;;;;;;;;;6277143;22;20458;-68
2023/04/12 09:39:07;;;;;;;10.55;5.20;;;;;;;;;;6277228;22;20083;-68
2023/04/12 09:41:35;;;;;;;7.57;4.97;;;;;;;;;;6277193;22;20373;-67
2023/04/12 09:44:03;;;;;;;7.53;5.10;;;;;;;;;;6276570;22;20015;-68
2023/04/12 09:46:30;;;;;;;9.05;5.07;;;;;;;;;;6276999;22;20016;-68
2023/04/12 09:48:58;;;;;;;13.30;5.03;;;;;;;;;;6250207;22;20012;-68
2023/04/12 09:51:31;;;;;;;11.32;5.18;;;;;;;;;;6249854;22;20023;-67
2023/04/12 09:53:59;;;;;;;7.45;4.50;;;;;;;;;;6277010;22;20023;-67
2023/04/12 09:56:30;;;;;;;5.65;4.22;;;;;;;;;;6276864;22;20438;-68
2023/04/12 09:59:02;;;;;;;8.88;4.50;;;;;;;;;;6276975;22;20339;-68
2023/04/12 10:01:35;;;;;;;6.28;4.25;;;;;;;;;;6276919;22;20034;-67
2023/04/12 10:04:04;;;;;;;6.97;4.53;;;;;;;;;;6276949;22;20016;-67
2023/04/12 10:06:33;;;;;;;8.25;4.38;;;;;;;;;;6276836;22;20016;-67
2023/04/12 10:09:03;;;;;;;7.40;4.47;;;;;;;;;;6276802;22;20462;-67
2023/04/12 10:11:32;;;;;;;8.55;3.83;;;;;;;;;;6276878;22;20015;-67
2023/04/12 10:14:03;;;;;;;7.72;4.10;;;;;;;;;;6276889;22;20438;-67
2023/04/12 10:16:33;;;;;;;5.18;3.47;;;;;;;;;;6276847;22;20460;-68
2023/04/12 10:19:04;;;;;;;8.75;4.05;;;;;;;;;;6249946;22;20026;-68
2023/04/12 10:21:31;;;;;;;12.07;5.13;;;;;;;;;;6276995;22;20043;-68
2023/04/12 10:23:59;;;;;;;8.93;4.65;;;;;;;;;;6276860;22;20024;-68
2023/04/12 10:26:27;;;;;;;7.05;3.97;;;;;;;;;;6276557;22;20043;-68
2023/04/12 10:29:13;;;;;;;7.65;3.90;;;;;;;;;;6276707;22;20224;-67
2023/04/12 10:31:41;;;;;;;5.93;3.42;;;;;;;;;;6276824;22;20016;-67
2023/04/12 10:34:09;;;;;;;5.15;3.33;;;;;;;;;;6276400;22;20070;-67
2023/04/12 10:36:52;;;;;;;7.75;4.22;;;;;;;;;;6276758;22;20020;-67
2023/04/12 10:39:35;;;;;;;7.93;4.38;;;;;;;;;;6276603;22;20338;-67
2023/04/12 10:42:22;;;;;;;7.35;4.57;;;;;;;;;;6276541;22;20019;-67
2023/04/12 10:44:51;;;;;;;8.90;5.25;;;;;;;;;;6276617;22;20413;-68
2023/04/12 10:47:37;;;;;;;9.95;4.32;;;;;;;;;;6276527;22;20020;-67
2023/04/12 10:50:20;;;;;;;8.68;4.57;;;;;;;;;;6276918;22;20082;-67
2023/04/12 10:53:07;;;;;;;9.80;4.63;;;;;;;;;;6249485;22;20019;-67
2023/04/12 10:55:35;;;;;;;6.10;3.47;;;;;;;;;;6276179;22;20011;-67
2023/04/12 10:58:02;;;;;;;6.55;3.63;;;;;;;;;;6276288;22;20094;-68
2023/04/12 11:00:48;;;;;;;8.95;4.35;;;;;;;;;;6276410;22;20015;-67
2023/04/12 11:03:17;;;;;;;8.23;4.50;;;;;;;;;;6276408;22;20307;-67
2023/04/12 11:05:58;;;;;;;9.60;5.15;;;;;;;;;;6278700;22;20027;-68
2023/04/12 11:09:01;;;;;;;7.88;4.18;;;;;;;;;;6242134;22;20069;-68
2023/04/12 11:11:33;;;;;;;8.25;4.70;;;;;;;;;;6276344;22;20042;-68
2023/04/12 11:14:01;;;;;;;8.48;3.53;;;;;;;;;;6276491;22;20472;-68
2023/04/12 11:16:28;;;;;;;14.02;5.93;;;;;;;;;;6276480;22;20026;-68
2023/04/12 11:18:56;;;;;;;11.25;6.43;;;;;;;;;;6275941;22;20011;-68
2023/04/12 11:21:25;;;;;;;11.32;4.90;;;;;;;;;;6276220;22;20026;-68
2023/04/12 11:23:54;;;;;;;7.50;4.60;;;;;;;;;;6276178;22;20500;-68
2023/04/12 11:26:21;;;;;;;5.97;3.72;;;;;;;;;;6276150;22;20027;-68
2023/04/12 11:28:52;;;;;;;5.72;3.20;;;;;;;;;;6249006;22;20016;-68
2023/04/12 11:31:20;;;;;;;7.20;3.20;;;;;;;;;;6249570;22;20023;-68
2023/04/12 11:33:48;;;;;;;7.97;3.00;;;;;;;;;;6276287;22;20086;-67
2023/04/12 11:36:15;;;;;;;5.07;3.00;;;;;;;;;;6275994;22;20095;-67
2023/04/12 11:38:44;;;;;;;5.80;2.60;;;;;;;;;;6249117;22;20027;-68
2023/04/12 11:41:15;;;;;;;4.03;3.03;;;;;;;;;;6276096;22;20026;-67
2023/04/12 11:43:44;;;;;;;7.32;3.25;;;;;;;;;;6275938;22;20039;-68
2023/04/12 11:46:11;;;;;;;6.55;3.30;;;;;;;;;;6249103;22;20016;-68
2023/04/12 11:48:39;;;;;;;5.72;3.03;;;;;;;;;;6275878;22;20022;-68
2023/04/12 11:51:20;;;;;;;8.07;3.05;;;;;;;;;;6275923;22;20016;-67
2023/04/12 11:53:51;;;;;;;7.00;3.70;;;;;;;;;;6275981;22;20039;-67
2023/04/12 11:56:19;;;;;;;4.45;3.00;;;;;;;;;;6275915;22;20024;-67
2023/04/12 11:58:47;;;;;;;7.50;3.67;;;;;;;;;;6275816;22;20070;-68
2023/04/12 12:01:15;;;;;;;5.25;3.22;;;;;;;;;;6275817;22;20422;-67
2023/04/12 12:03:43;;;;;;;7.60;3.38;;;;;;;;;;6275955;22;20057;-67
2023/04/12 12:06:11;;;;;;;6.88;3.28;;;;;;;;;;6275520;22;20012;-68
2023/04/12 12:08:39;;;;;;;6.28;3.03;;;;;;;;;;6275566;22;20111;-67
2023/04/12 12:11:07;;;;;;;8.98;3.15;;;;;;;;;;6276185;22;20011;-66
2023/04/12 12:13:48;;;;;;;8.75;4.10;;;;;;;;;;6275724;22;20043;-67
2023/04/12 12:16:16;;;;;;;5.70;3.42;;;;;;;;;;6249110;22;20031;-67
2023/04/12 12:18:44;;;;;;;6.53;4.28;;;;;;;;;;6275578;22;20015;-67
2023/04/12 12:21:13;;;;;;;7.43;3.97;;;;;;;;;;6275682;22;20015;-67
2023/04/12 12:23:43;;;;;;;7.25;2.78;;;;;;;;;;6275652;22;20023;-67
2023/04/12 12:26:19;;;;;;;5.47;2.55;;;;;;;;;;6275626;22;20024;-66
2023/04/12 12:28:54;;;;;;;5.93;2.88;;;;;;;;;;6276026;22;20012;-66
2023/04/12 12:31:22;;;;;;;4.33;2.47;;;;;;;;;;6275747;22;20020;-67
2023/04/12 12:33:53;;;;;;;7.78;2.67;;;;;;;;;;6275682;22;20019;-67
2023/04/12 12:36:28;;;;;;;5.18;2.40;;;;;;;;;;6275567;22;20020;-68
2023/04/12 12:38:55;;;;;;;5.03;2.88;;;;;;;;;;6275840;22;20035;-67
2023/04/12 12:41:24;;;;;;;7.85;2.38;;;;;;;;;;6275780;22;20089;-66
2023/04/12 12:43:52;;;;;;;4.93;2.67;;;;;;;;;;6275493;22;20442;-67
2023/04/12 12:46:20;;;;;;;8.15;2.75;;;;;;;;;;6275520;22;20081;-67
2023/04/12 12:48:48;;;;;;;6.72;2.50;;;;;;;;;;6275047;22;20039;-68
2023/04/12 12:51:16;;;;;;;4.53;2.78;;;;;;;;;;6248354;22;20093;-67
2023/04/12 12:53:44;;;;;;;7.05;2.42;;;;;;;;;;6275481;22;20035;-66
2023/04/12 12:56:12;;;;;;;5.93;2.67;;;;;;;;;;6248776;22;20057;-66
2023/04/12 12:58:40;;;;;;;6.47;3.13;;;;;;;;;;6275544;22;20016;-66
2023/04/12 13:01:08;;;;;;;7.28;2.67;;;;;;;;;;6275470;22;20012;-66
2023/04/12 13:03:36;;;;;;;9.73;2.92;;;;;;;;;;6273944;22;20023;-65
2023/04/12 13:06:04;;;;;;;5.80;3.00;;;;;;;;;;6275122;22;20019;-66
2023/04/12 13:08:34;;;;;;;4.90;2.55;;;;;;;;;;6248296;22;20016;-67
2023/04/12 13:11:01;;;;;;;4.25;3.00;;;;;;;;;;6275118;22;20069;-67
2023/04/12 13:13:29;;;;;;;5.20;2.72;;;;;;;;;;6275345;22;20377;-66
2023/04/12 13:15:56;;;;;;;4.75;2.40;;;;;;;;;;6274416;22;20016;-67
2023/04/12 13:18:24;;;;;;;6.55;2.60;;;;;;;;;;6274616;22;20039;-67
2023/04/12 13:20:52;;;;;;;4.75;2.70;;;;;;;;;;6250415;22;20070;-67
2023/04/12 13:23:20;;;;;;;3.95;2.50;;;;;;;;;;6250488;22;20015;-69
2023/04/12 13:25:48;;;;;;;4.68;2.65;;;;;;;;;;6277855;22;20015;-67
2023/04/12 13:28:19;;;;;;;5.28;2.85;;;;;;;;;;6277395;22;20381;-68
2023/04/12 13:30:47;;;;;;;7.45;2.85;;;;;;;;;;6277370;22;20016;-67
2023/04/12 13:33:15;;;;;;;5.15;2.90;;;;;;;;;;6277055;22;20016;-67
2023/04/12 13:35:47;;;;;;;7.35;2.45;;;;;;;;;;6277146;22;20043;-67
2023/04/12 13:38:15;;;;;;;6.68;3.05;;;;;;;;;;6250327;22;20015;-67
2023/04/12 13:40:42;;;;;;;3.97;3.42;;;;;;;;;;6250160;22;20018;-67
2023/04/12 13:43:10;;;;;;;4.95;2.60;;;;;;;;;;6277026;22;20359;-67
2023/04/12 13:45:37;;;;;;;3.60;2.90;;;;;;;;;;6277415;22;20075;-66
2023/04/12 13:48:05;;;;;;;7.47;3.05;;;;;;;;;;6250747;22;20073;-67
2023/04/12 13:50:33;;;;;;;4.20;2.80;;;;;;;;;;6276946;22;20073;-67
2023/04/12 13:53:00;;;;;;;4.97;2.58;;;;;;;;;;6277049;22;20392;-67
2023/04/12 13:55:28;;;;;;;5.90;3.08;;;;;;;;;;6249978;22;20302;-67
2023/04/12 13:57:55;;;;;;;7.68;3.00;;;;;;;;;;6277001;22;20020;-68
2023/04/12 14:00:23;;;;;;;6.15;3.33;;;;;;;;;;6277047;22;20039;-68
2023/04/12 14:02:50;;;;;;;7.80;3.13;;;;;;;;;;6276850;22;20024;-68
2023/04/12 14:05:18;;;;;;;6.05;3.35;;;;;;;;;;6276891;22;20020;-69
2023/04/12 14:07:48;;;;;;;5.95;3.35;;;;;;;;;;6248969;22;20077;-69
2023/04/12 14:10:16;;;;;;;4.60;3.30;;;;;;;;;;6251141;22;20065;-69
2023/04/12 14:12:43;;;;;;;4.63;3.10;;;;;;;;;;6277058;22;20044;-67
2023/04/12 14:15:11;;;;;;;4.55;3.40;;;;;;;;;;6249836;22;20024;-70
2023/04/12 14:17:38;;;;;;;8.07;3.00;;;;;;;;;;6276824;22;20027;-69
2023/04/12 14:20:09;;;;;;;7.55;3.15;;;;;;;;;;6276565;22;20473;-69
2023/04/12 14:22:36;;;;;;;8.20;3.30;;;;;;;;;;6276486;22;20020;-69
2023/04/12 14:25:04;;;;;;;3.40;2.72;;;;;;;;;;6276988;22;20016;-69
2023/04/12 14:27:34;;;;;;;6.63;3.35;;;;;;;;;;6276770;22;20430;-69
2023/04/12 14:30:01;;;;;;;6.20;4.15;;;;;;;;;;6276249;22;20031;-70
2023/04/12 14:32:29;;;;;;;6.15;3.30;;;;;;;;;;6276692;22;20023;-69
2023/04/12 14:34:56;;;;;;;5.82;3.35;;;;;;;;;;6249981;22;20019;-70
2023/04/12 14:37:24;;;;;;;6.90;3.60;;;;;;;;;;6276372;22;20012;-70
2023/04/12 14:39:55;;;;;;;4.40;2.90;;;;;;;;;;6276582;22;20082;-70
2023/04/12 14:42:22;;;;;;;5.32;3.15;;;;;;;;;;6275044;22;20030;-68
2023/04/12 14:44:50;;;;;;;6.25;3.38;;;;;;;;;;6274566;22;20016;-68
2023/04/12 14:47:17;;;;;;;3.67;3.08;;;;;;;;;;6274893;22;20015;-67
2023/04/12 14:49:45;;;;;;;5.70;3.50;;;;;;;;;;6247792;22;20020;-68